CheckWX is a tool to help pilots better visualize weather data.  It is not intended as a substitute for an official pre-flight weather briefing.

01:55:47 UTC

LYVR TAF
Vršac International Airport
Serbia
TAF LYVR 182300Z 1900/1924 34006KT 9999 SCT040 TX14/1913Z TN07/1905Z TEMPO 1915/1918 34016KT TEMPO 1900/1906 BKN010 BKN030

Mar-19@
00:00 UTC

Mar-19 @ 00:00 UTC

Mar-20@
00:00 UTC

Mar-20 @ 00:00 UTC

TAF LYVR 182300Z 1900/1924 34006KT 9999 SCT040 TX14/1913Z TN07/1905Z
Wind
  • 340° at 6 KTS
Cloud Levels
  • Scattered at 4,000' AGL

Mar-19@
00:00 UTC

Mar-19 @ 00:00 UTC

Mar-19@
06:00 UTC

Mar-19 @ 06:00 UTC

TEMPO 1900/1906 BKN010 BKN030

Temporary

Temporary Changes expected for less than half the time period

Cloud Levels
  • Broken at 1,000' AGL
  • Broken at 3,000' AGL

Mar-19@
15:00 UTC

Mar-19 @ 15:00 UTC

Mar-19@
18:00 UTC

Mar-19 @ 18:00 UTC

TEMPO 1915/1918 34016KT

Temporary

Temporary Changes expected for less than half the time period

Wind
  • 340° at 16 KTS